Time;durP1;ratioP1;P1;durP2;ratioP2;P2;SDS_P1;SDS_P2;PMS_P1;PMS_P2;Temp;Humidity;BMP_temperature;BMP_pressure;BME280_temperature;BME280_humidity;BME280_pressure;Samples;Min_cycle;Max_cycle;Signal;HPM_P1;HPM_P2
2022/10/02 00:01:32;;;;;;;8.20;6.40;;;;;;;11.46;84.81;99608.87;85960;1293;88377;-60
2022/10/02 00:03:45;;;;;;;8.80;6.30;;;;;;;11.45;84.91;99609.76;85880;1293;94697;-63
2022/10/02 00:06:02;;;;;;;8.00;6.30;;;;;;;11.45;84.86;99609.26;85902;1295;81939;-61
2022/10/02 00:08:17;;;;;;;9.30;6.90;;;;;;;11.42;84.98;99607.32;85935;1300;82937;-60
2022/10/02 00:10:31;;;;;;;7.60;6.50;;;;;;;11.46;84.93;99609.71;85889;1293;98850;-61
2022/10/02 00:12:38;;;;;;;;;;;;;;;11.47;85.01;99610.91;85928;1293;87334;-62
2022/10/02 00:14:53;;;;;;;7.30;6.60;;;;;;;11.49;84.96;99603.96;85888;1294;92843;-62
2022/10/02 00:17:04;;;;;;;9.70;7.00;;;;;;;11.51;84.90;99606.35;85855;1300;81755;-60
2022/10/02 00:19:18;;;;;;;7.10;6.00;;;;;;;11.49;84.99;99608.70;85914;1294;81161;-62
2022/10/02 00:21:48;;;;;;;7.60;5.80;;;;;;;11.50;85.01;99609.07;85854;1293;99797;-61
2022/10/02 00:24:00;;;;;;;7.00;5.70;;;;;;;11.53;84.94;99610.52;85904;1294;86693;-60
2022/10/02 00:26:17;;;;;;;8.20;5.90;;;;;;;11.54;84.86;99615.41;85894;1293;95021;-60
2022/10/02 00:28:31;;;;;;;6.70;5.10;;;;;;;11.52;84.93;99613.73;85890;1300;80732;-60
2022/10/02 00:31:00;;;;;;;7.70;5.50;;;;;;;11.49;84.97;99619.27;85885;1295;81904;-59
2022/10/02 00:33:20;;;;;;;6.60;5.60;;;;;;;11.50;85.05;99615.19;85870;1295;99524;-57
2022/10/02 00:36:25;;;;;;;8.00;5.90;;;;;;;11.50;85.05;99613.45;85832;1291;90486;-59
2022/10/02 00:38:48;;;;;;;6.50;5.50;;;;;;;11.47;85.12;99617.99;85680;1306;95222;-60
2022/10/02 00:41:43;;;;;;;6.30;5.50;;;;;;;11.48;85.15;99614.67;85652;1300;81124;-59
2022/10/02 00:44:16;;;;;;;7.40;5.20;;;;;;;11.50;85.07;99622.38;85737;1297;81706;-61
2022/10/02 00:46:41;;;;;;;8.80;6.00;;;;;;;11.49;85.07;99621.67;85590;1293;409832;-61
2022/10/02 00:49:18;;;;;;;7.60;5.60;;;;;;;11.48;85.16;99623.94;85896;1295;88725;-61
2022/10/02 00:51:53;;;;;;;8.70;5.50;;;;;;;11.49;85.18;99623.48;85798;1297;94383;-63
2022/10/02 00:54:17;;;;;;;8.60;6.40;;;;;;;11.48;85.14;99627.93;85921;1301;82200;-63
2022/10/02 00:56:35;;;;;;;9.00;6.10;;;;;;;11.45;85.31;99627.52;85932;1285;81960;-62
2022/10/02 00:59:29;;;;;;;7.40;6.00;;;;;;;11.44;85.33;99623.66;85902;1300;99349;-61
2022/10/02 01:01:44;;;;;;;7.20;5.30;;;;;;;11.44;85.33;99621.25;85661;1303;87861;-62
2022/10/02 01:03:55;;;;;;;7.80;5.80;;;;;;;11.46;85.35;99626.40;85857;1293;95609;-62
2022/10/02 01:06:05;;;;;;;6.70;6.00;;;;;;;11.48;85.33;99627.80;85856;1293;81478;-61
2022/10/02 01:08:15;;;;;;;7.70;5.50;;;;;;;11.49;85.30;99628.46;85923;1295;83156;-60
2022/10/02 01:10:26;;;;;;;8.10;5.60;;;;;;;11.48;85.42;99628.27;85924;1297;97547;-62
2022/10/02 01:12:37;;;;;;;8.20;5.30;;;;;;;11.49;85.35;99630.77;85860;1301;88413;-63
2022/10/02 01:14:45;;;;;;;6.10;5.50;;;;;;;11.45;85.47;99628.39;85867;1294;91954;-61
2022/10/02 01:16:54;;;;;;;6.30;5.50;;;;;;;11.46;85.42;99629.27;85870;1301;81095;-60
2022/10/02 01:19:06;;;;;;;6.60;5.50;;;;;;;11.47;85.46;99630.06;85894;1301;82317;-61
2022/10/02 01:21:21;;;;;;;7.80;5.60;;;;;;;11.47;85.49;99631.17;85878;1300;99446;-61
2022/10/02 01:23:42;;;;;;;8.90;6.20;;;;;;;11.48;85.56;99633.30;85896;1295;88372;-60
2022/10/02 01:25:50;;;;;;;8.50;5.80;;;;;;;11.51;85.44;99634.95;85896;1297;95120;-62
2022/10/02 01:27:59;;;;;;;8.60;6.40;;;;;;;11.51;85.45;99635.49;85878;1300;78820;-60
2022/10/02 01:30:14;;;;;;;7.40;6.10;;;;;;;11.50;85.54;99635.20;85921;1296;81704;-61
2022/10/02 01:32:25;;;;;;;8.30;6.60;;;;;;;11.48;85.57;99639.46;85918;1297;98965;-62
2022/10/02 01:34:34;;;;;;;8.40;6.50;;;;;;;11.48;85.58;99640.61;85922;1293;87813;-62
2022/10/02 01:36:43;;;;;;;8.90;6.20;;;;;;;11.49;85.63;99639.36;85852;1295;94814;-59
2022/10/02 01:38:54;;;;;;;9.20;6.50;;;;;;;11.48;85.69;99646.36;85918;1300;79773;-60
2022/10/02 01:41:06;;;;;;;8.10;6.00;;;;;;;11.48;85.63;99643.94;85915;1298;82643;-61
2022/10/02 01:43:19;;;;;;;8.80;6.50;;;;;;;11.48;85.53;99646.74;85921;1298;96308;-63
2022/10/02 01:45:44;;;;;;;9.00;6.20;;;;;;;11.46;85.58;99648.45;85934;1293;87977;-57
2022/10/02 01:48:02;;;;;;;10.60;7.10;;;;;;;11.46;85.67;99644.87;85916;1300;94450;-64
2022/10/02 01:50:28;;;;;;;8.00;6.60;;;;;;;11.48;85.59;99645.79;85908;1294;80040;-62
2022/10/02 01:52:49;;;;;;;7.50;6.40;;;;;;;11.46;85.69;99650.08;85926;1300;82790;-60
2022/10/02 01:55:22;;;;;;;8.00;6.30;;;;;;;11.44;85.61;99652.83;85886;1298;98471;-62
2022/10/02 01:57:48;;;;;;;7.10;6.10;;;;;;;11.38;85.56;99656.76;85910;1293;88531;-61
2022/10/02 02:00:08;;;;;;;8.60;6.50;;;;;;;11.30;85.67;99658.98;85864;1298;93506;-61
2022/10/02 02:02:30;;;;;;;8.20;6.10;;;;;;;11.26;85.71;99662.33;85902;1301;79944;-61
2022/10/02 02:04:49;;;;;;;7.50;6.60;;;;;;;11.28;85.76;99666.48;85887;1300;82570;-60
2022/10/02 02:07:11;;;;;;;8.30;6.20;;;;;;;11.30;85.77;99670.58;85936;1298;98753;-61
2022/10/02 02:09:28;;;;;;;7.70;6.30;;;;;;;11.30;85.83;99670.89;85884;1287;90799;-61
2022/10/02 02:11:39;;;;;;;8.10;6.40;;;;;;;11.28;85.80;99671.77;85879;1300;94230;-61
2022/10/02 02:13:57;;;;;;;7.10;6.40;;;;;;;11.24;85.84;99676.02;85865;1300;80941;-60
2022/10/02 02:16:15;;;;;;;8.00;6.70;;;;;;;11.24;85.79;99682.04;85878;1293;82591;-61
2022/10/02 02:18:33;;;;;;;7.80;6.70;;;;;;;11.22;85.99;99684.70;85849;1297;98143;-61
2022/10/02 02:20:47;;;;;;;7.90;7.00;;;;;;;11.26;86.00;99687.45;85874;1293;89302;-62
2022/10/02 02:23:01;;;;;;;8.30;6.50;;;;;;;11.30;86.04;99681.89;85872;1299;95356;-61
2022/10/02 02:25:18;;;;;;;10.30;6.60;;;;;;;11.32;85.93;99689.19;85871;1297;79395;-61
2022/10/02 02:27:35;;;;;;;6.80;6.10;;;;;;;11.33;85.97;99686.94;85898;1300;82961;-62
2022/10/02 02:29:48;;;;;;;7.20;6.50;;;;;;;11.31;85.99;99687.36;85923;1294;99312;-61
2022/10/02 02:32:03;;;;;;;11.90;7.00;;;;;;;11.25;85.83;99689.86;85926;1298;88422;-59
2022/10/02 02:34:18;;;;;;;8.20;6.50;;;;;;;11.16;85.87;99692.58;85906;1293;96057;-59
2022/10/02 02:36:33;;;;;;;7.30;6.00;;;;;;;11.11;85.80;99698.27;85927;1301;82374;-62
2022/10/02 02:38:46;;;;;;;8.50;7.10;;;;;;;11.05;85.86;99698.58;85954;1300;83014;-61
2022/10/02 02:40:57;;;;;;;7.90;7.10;;;;;;;11.02;85.91;99700.07;85940;1300;98163;-60
2022/10/02 02:43:11;;;;;;;7.90;7.00;;;;;;;11.01;85.91;99703.38;85882;1300;88206;-61
2022/10/02 02:45:25;;;;;;;7.10;6.40;;;;;;;10.99;85.86;99703.45;85875;1300;93526;-61
2022/10/02 02:47:43;;;;;;;7.50;6.50;;;;;;;11.01;86.00;99702.83;85864;1301;81925;-60
2022/10/02 02:50:00;;;;;;;7.40;6.30;;;;;;;11.01;85.98;99698.34;85892;1299;81575;-58
2022/10/02 02:52:17;;;;;;;9.50;6.90;;;;;;;11.00;86.12;99696.79;85838;1299;99283;-61
2022/10/02 02:54:31;;;;;;;9.10;7.30;;;;;;;11.04;86.21;99697.21;85851;1300;89333;-62
2022/10/02 02:56:42;;;;;;;8.50;6.40;;;;;;;11.10;86.15;99690.05;85826;1293;94556;-61
2022/10/02 02:58:58;;;;;;;8.90;7.50;;;;;;;11.07;86.14;99687.94;85859;1300;81889;-60
2022/10/02 03:01:07;;;;;;;9.40;7.90;;;;;;;11.04;86.07;99686.09;85867;1293;82144;-61
2022/10/02 03:03:18;;;;;;;8.70;7.80;;;;;;;10.99;86.17;99692.30;85855;1300;98635;-61
2022/10/02 03:05:28;;;;;;;7.90;7.10;;;;;;;10.98;86.32;99700.59;85864;1294;87943;-62
2022/10/02 03:07:37;;;;;;;8.50;7.50;;;;;;;10.98;86.34;99707.61;85845;1294;95525;-61
2022/10/02 03:09:55;;;;;;;8.90;7.40;;;;;;;11.00;86.45;99712.30;85816;1294;82195;-62
2022/10/02 03:12:20;;;;;;;8.20;7.40;;;;;;;11.04;86.47;99710.27;85837;1301;82940;-62
2022/10/02 03:14:57;;;;;;;8.90;7.70;;;;;;;11.09;86.47;99709.39;85869;1292;97505;-62
2022/10/02 03:17:19;;;;;;;8.20;7.50;;;;;;;11.11;86.58;99708.42;85877;1293;88138;-60
2022/10/02 03:19:44;;;;;;;9.80;8.00;;;;;;;11.14;86.65;99704.46;85869;1294;94010;-62
2022/10/02 03:22:03;;;;;;;9.80;8.70;;;;;;;11.19;86.60;99710.08;85869;1299;82190;-59
2022/10/02 03:24:22;;;;;;;9.00;8.10;;;;;;;11.15;86.62;99705.89;85873;1300;82071;-60
2022/10/02 03:26:40;;;;;;;9.70;8.30;;;;;;;11.09;86.63;99703.77;85905;1300;100093;-61
2022/10/02 03:28:53;;;;;;;9.90;7.80;;;;;;;11.08;86.69;99708.14;85922;1293;87869;-61
2022/10/02 03:31:03;;;;;;;10.70;8.30;;;;;;;11.12;86.78;99705.05;85906;1299;93470;-60
2022/10/02 03:33:16;;;;;;;11.20;8.50;;;;;;;11.14;86.73;99706.43;85892;1300;81286;-58
2022/10/02 03:35:27;;;;;;;9.80;8.50;;;;;;;11.15;86.81;99706.72;85917;1294;82019;-63
2022/10/02 03:37:36;;;;;;;9.10;8.00;;;;;;;11.16;86.88;99710.01;85885;1297;99404;-62
2022/10/02 03:39:46;;;;;;;9.20;8.00;;;;;;;11.17;86.94;99706.34;85883;1300;86738;-62
2022/10/02 03:41:56;;;;;;;10.10;8.30;;;;;;;11.20;86.96;99711.01;85763;1300;94906;-60
2022/10/02 03:44:05;;;;;;;9.00;7.90;;;;;;;11.21;86.91;99708.25;85780;1304;81874;-62
2022/10/02 03:46:14;;;;;;;12.40;8.90;;;;;;;11.23;86.93;99709.41;85787;1302;82493;-60
2022/10/02 03:48:22;;;;;;;8.80;7.90;;;;;;;11.28;87.02;99709.65;85809;1302;97940;-59
2022/10/02 03:50:33;;;;;;;9.40;8.40;;;;;;;11.29;87.05;99715.77;85844;1287;89045;-56
2022/10/02 03:52:43;;;;;;;9.90;8.90;;;;;;;11.33;86.99;99717.52;85842;1294;94284;-61
2022/10/02 03:54:56;;;;;;;10.00;9.00;;;;;;;11.35;87.04;99717.83;85807;1302;80518;-61
2022/10/02 03:57:11;;;;;;;9.60;8.60;;;;;;;11.35;87.12;99714.54;85882;1302;82660;-61
2022/10/02 03:59:38;;;;;;;10.00;9.00;;;;;;;11.37;87.03;99714.38;85802;1295;99403;-62
2022/10/02 04:01:51;;;;;;;9.00;8.10;;;;;;;11.36;87.03;99717.09;85817;1299;88439;-56
2022/10/02 04:04:05;;;;;;;9.00;8.10;;;;;;;11.36;87.12;99717.26;85820;1299;95055;-60
2022/10/02 04:06:15;;;;;;;;;;;;;;;11.39;87.08;99716.41;85810;1297;82739;-61
2022/10/02 04:08:28;;;;;;;9.10;8.00;;;;;;;11.43;87.10;99715.07;85794;1297;84508;-61
2022/10/02 04:10:45;;;;;;;8.80;7.80;;;;;;;11.44;87.04;99718.11;85873;1299;99787;-61
2022/10/02 04:12:58;;;;;;;9.00;8.10;;;;;;;11.46;87.06;99723.51;85851;1299;88582;-61
2022/10/02 04:15:20;;;;;;;8.90;7.80;;;;;;;11.40;87.17;99722.33;85867;1299;94186;-62
2022/10/02 04:17:37;;;;;;;9.30;8.10;;;;;;;11.44;87.11;99723.56;85901;1294;82692;-61
2022/10/02 04:19:53;;;;;;;8.90;8.10;;;;;;;11.42;87.28;99726.35;85860;1300;83212;-61
2022/10/02 04:22:08;;;;;;;9.80;8.50;;;;;;;11.45;87.16;99726.88;85907;1299;99534;-62
2022/10/02 04:24:28;;;;;;;8.80;7.70;;;;;;;11.47;87.12;99726.55;85929;1302;88895;-61
2022/10/02 04:26:44;;;;;;;11.50;8.10;;;;;;;11.49;87.19;99726.38;85885;1302;93955;-62
2022/10/02 04:29:00;;;;;;;8.50;7.60;;;;;;;11.52;87.10;99733.16;85879;1301;80918;-62
2022/10/02 04:31:14;;;;;;;9.60;8.70;;;;;;;11.52;87.17;99731.98;85873;1299;80807;-62
2022/10/02 04:33:25;;;;;;;10.30;8.40;;;;;;;11.51;87.22;99730.11;85866;1299;99695;-62
2022/10/02 04:35:46;;;;;;;8.80;8.00;;;;;;;11.47;87.38;99734.79;85892;1300;89163;-62
2022/10/02 04:38:20;;;;;;;9.70;7.80;;;;;;;11.45;87.38;99738.53;85871;1299;95025;-61
2022/10/02 04:41:01;;;;;;;10.70;8.40;;;;;;;11.45;87.35;99737.30;85834;1295;82299;-62
2022/10/02 04:43:30;;;;;;;9.90;8.40;;;;;;;11.47;87.45;99735.00;85836;1295;81098;-61
2022/10/02 04:46:00;;;;;;;10.20;8.40;;;;;;;11.47;87.41;99735.02;85827;1295;99230;-60
2022/10/02 04:48:37;;;;;;;9.60;8.70;;;;;;;11.48;87.48;99739.79;85817;1300;89468;-60
2022/10/02 04:50:56;;;;;;;9.80;8.80;;;;;;;11.52;87.38;99737.24;85813;1300;95380;-60
2022/10/02 04:53:33;;;;;;;10.20;9.00;;;;;;;11.53;87.42;99740.11;85827;1299;82365;-61
2022/10/02 04:56:14;;;;;;;9.30;8.40;;;;;;;11.51;87.48;99739.06;85843;1300;83151;-61
2022/10/02 04:58:49;;;;;;;9.40;8.50;;;;;;;11.50;87.55;99743.56;85818;1294;98559;-60
2022/10/02 05:01:12;;;;;;;10.00;9.10;;;;;;;11.54;87.47;99746.13;85863;1299;88355;-60
2022/10/02 05:03:40;;;;;;;9.30;8.40;;;;;;;11.56;87.54;99749.96;85832;1300;94331;-55
2022/10/02 05:06:08;;;;;;;9.30;8.40;;;;;;;11.56;87.57;99751.79;85812;1302;80672;-62
2022/10/02 05:08:42;;;;;;;9.10;8.20;;;;;;;11.59;87.61;99754.70;85852;1299;83327;-62
2022/10/02 05:11:09;;;;;;;8.30;7.50;;;;;;;11.61;87.73;99758.43;85860;1300;99864;-59
2022/10/02 05:13:41;;;;;;;8.40;7.60;;;;;;;11.58;87.73;99759.58;85916;1294;88020;-59
2022/10/02 05:16:24;;;;;;;8.20;7.40;;;;;;;11.62;87.81;99760.05;85897;1299;95354;-64
2022/10/02 05:19:10;;;;;;;7.70;6.90;;;;;;;11.64;87.83;99759.86;85870;1299;81051;-60
2022/10/02 05:21:39;;;;;;;7.10;6.40;;;;;;;11.65;87.81;99766.50;85909;1300;82576;-59
2022/10/02 05:24:05;;;;;;;7.60;6.80;;;;;;;11.67;87.77;99765.41;85853;1295;99730;-60
2022/10/02 05:26:44;;;;;;;7.70;6.60;;;;;;;11.70;87.79;99770.35;85882;1299;89034;-61
2022/10/02 05:29:17;;;;;;;8.10;7.30;;;;;;;11.74;87.74;99768.38;85839;1299;95160;-61
2022/10/02 05:31:41;;;;;;;7.70;6.90;;;;;;;11.73;87.82;99772.25;85893;1300;82489;-59
2022/10/02 05:34:09;;;;;;;7.10;6.50;;;;;;;11.76;87.85;99772.45;85848;1293;82376;-60
2022/10/02 05:36:42;;;;;;;6.90;6.30;;;;;;;11.80;87.81;99770.90;85848;1299;99128;-57
2022/10/02 05:39:03;;;;;;;7.00;6.30;;;;;;;11.83;87.75;99772.77;85807;1299;88777;-61
2022/10/02 05:41:21;;;;;;;7.30;6.50;;;;;;;11.87;87.76;99778.52;85821;1299;94964;-59
2022/10/02 05:43:38;;;;;;;6.60;6.00;;;;;;;11.87;87.71;99778.79;85835;1301;80869;-59
2022/10/02 05:45:54;;;;;;;7.00;6.30;;;;;;;11.87;87.70;99776.69;85840;1299;82947;-58
2022/10/02 05:48:15;;;;;;;6.80;6.10;;;;;;;11.87;87.80;99779.21;85832;1300;99854;-61
2022/10/02 05:50:29;;;;;;;6.50;5.90;;;;;;;11.85;87.85;99786.50;85867;1294;88326;-61
2022/10/02 05:52:47;;;;;;;6.30;5.70;;;;;;;11.86;87.88;99781.14;85845;1301;94972;-58
2022/10/02 05:55:03;;;;;;;7.00;6.10;;;;;;;11.90;87.86;99786.70;85848;1299;81760;-58
2022/10/02 05:57:25;;;;;;;5.80;5.30;;;;;;;11.92;87.95;99787.31;85853;1299;82972;-58
2022/10/02 05:59:42;;;;;;;6.10;5.50;;;;;;;11.94;87.92;99788.73;85866;1299;99013;-60
2022/10/02 06:01:52;;;;;;;6.80;5.90;;;;;;;11.95;87.94;99791.01;85916;1299;88347;-62
2022/10/02 06:04:11;;;;;;;7.20;6.40;;;;;;;11.96;88.07;99788.42;85859;1300;95694;-61
2022/10/02 06:06:28;;;;;;;6.80;5.80;;;;;;;11.88;88.23;99789.92;85812;1302;82496;-60
2022/10/02 06:08:42;;;;;;;7.10;6.40;;;;;;;11.96;88.10;99793.05;85901;1300;82647;-56
2022/10/02 06:10:58;;;;;;;5.70;5.20;;;;;;;12.00;88.10;99791.74;85887;1295;100056;-60
2022/10/02 06:13:13;;;;;;;5.80;5.20;;;;;;;12.06;88.09;99793.69;85842;1299;88471;-61
2022/10/02 06:15:26;;;;;;;6.40;5.70;;;;;;;12.11;88.10;99794.60;85836;1300;95519;-60
2022/10/02 06:17:41;;;;;;;5.90;5.40;;;;;;;12.15;88.13;99795.49;85858;1300;79917;-59
2022/10/02 06:19:58;;;;;;;6.30;5.70;;;;;;;12.14;88.09;99796.45;85849;1296;82725;-60
2022/10/02 06:22:13;;;;;;;6.30;5.70;;;;;;;12.14;87.96;99801.32;85866;1302;99582;-60
2022/10/02 06:24:31;;;;;;;6.10;5.10;;;;;;;12.16;87.89;99799.36;85813;1302;88216;-60
2022/10/02 06:26:49;;;;;;;6.70;6.10;;;;;;;12.16;87.95;99801.65;85825;1301;93528;-60
2022/10/02 06:29:05;;;;;;;6.60;6.00;;;;;;;12.18;88.06;99799.67;85824;1301;80956;-56
2022/10/02 06:31:25;;;;;;;7.00;6.20;;;;;;;12.31;88.17;99803.22;85851;1295;80954;-61
2022/10/02 06:33:35;;;;;;;6.30;5.70;;;;;;;12.41;88.09;99807.08;85808;1300;100060;-61
2022/10/02 06:36:00;;;;;;;6.00;5.30;;;;;;;12.40;88.21;99809.76;85829;1301;89097;-61
2022/10/02 06:38:27;;;;;;;5.90;5.30;;;;;;;12.43;88.03;99806.29;85799;1301;95305;-61
2022/10/02 06:40:49;;;;;;;7.50;5.30;;;;;;;12.54;88.16;99808.06;85820;1300;81000;-62
2022/10/02 06:43:05;;;;;;;5.30;4.70;;;;;;;12.79;88.21;99808.42;85841;1300;81203;-63
2022/10/02 06:45:30;;;;;;;6.80;4.60;;;;;;;12.86;88.12;99810.22;85813;1294;99870;-61
2022/10/02 06:47:59;;;;;;;5.50;4.80;;;;;;;12.87;88.05;99812.63;85842;1299;89108;-61
2022/10/02 06:50:36;;;;;;;4.50;4.10;;;;;;;12.88;87.93;99811.78;85890;1301;94230;-61
2022/10/02 06:52:54;;;;;;;6.10;4.00;;;;;;;12.85;87.87;99815.21;85819;1295;81755;-61
2022/10/02 06:55:26;;;;;;;3.70;3.40;;;;;;;12.83;87.78;99815.36;85824;1294;82171;-61
2022/10/02 06:57:56;;;;;;;4.30;3.60;;;;;;;12.83;87.75;99820.70;85866;1298;99123;-62
2022/10/02 07:00:13;;;;;;;6.60;4.20;;;;;;;12.80;87.78;99819.30;85849;1300;88756;-61
2022/10/02 07:02:43;;;;;;;7.40;4.20;;;;;;;12.81;87.71;99820.55;85858;1299;95794;-59
2022/10/02 07:05:23;;;;;;;6.20;4.30;;;;;;;12.82;87.69;99820.92;85886;1303;80870;-54
2022/10/02 07:07:48;;;;;;;5.30;3.90;;;;;;;12.81;87.64;99826.96;85846;1286;81229;-59
2022/10/02 07:10:27;;;;;;;6.90;4.50;;;;;;;12.77;87.62;99830.20;85879;1295;98739;-61
2022/10/02 07:13:10;;;;;;;7.00;4.50;;;;;;;12.71;87.58;99834.40;85866;1293;88385;-60
2022/10/02 07:15:52;;;;;;;4.80;4.20;;;;;;;12.66;87.61;99838.44;85850;1300;92375;-60
2022/10/02 07:18:15;;;;;;;6.60;4.60;;;;;;;12.76;87.52;99841.09;85761;1299;81330;-62
2022/10/02 07:20:54;;;;;;;5.90;4.50;;;;;;;12.80;87.61;99845.07;85843;1300;81983;-60
2022/10/02 07:23:39;;;;;;;6.00;4.80;;;;;;;12.84;87.52;99848.63;85856;1294;99226;-60
2022/10/02 07:26:03;;;;;;;5.70;4.90;;;;;;;12.85;87.73;99848.83;85850;1299;87107;-58
2022/10/02 07:28:28;;;;;;;6.20;4.40;;;;;;;12.94;87.67;99852.23;85836;1300;95371;-59
2022/10/02 07:30:45;;;;;;;6.60;4.40;;;;;;;13.00;87.60;99853.96;85814;1301;80837;-59
2022/10/02 07:33:03;;;;;;;4.70;4.10;;;;;;;13.10;87.44;99850.27;85851;1299;81776;-55
2022/10/02 07:35:50;;;;;;;5.50;4.40;;;;;;;13.13;87.50;99856.30;85821;1299;98806;-60
2022/10/02 07:38:42;;;;;;;5.30;4.10;;;;;;;13.16;87.33;99858.69;85850;1297;87700;-56
2022/10/02 07:41:08;;;;;;;8.50;4.20;;;;;;;13.14;87.45;99858.66;85801;1299;93707;-60
2022/10/02 07:43:33;;;;;;;5.30;4.50;;;;;;;13.23;87.36;99862.44;85842;1300;80685;-59
2022/10/02 07:45:45;;;;;;;5.50;3.90;;;;;;;13.31;87.28;99861.73;85858;1297;80821;-60
2022/10/02 07:48:15;;;;;;;6.20;4.30;;;;;;;13.34;87.17;99862.48;85862;1295;96946;-58
2022/10/02 07:50:35;;;;;;;7.60;3.90;;;;;;;13.36;87.14;99861.77;85848;1299;89237;-61
2022/10/02 07:52:58;;;;;;;4.80;3.50;;;;;;;13.38;87.12;99861.06;85876;1294;93841;-62
2022/10/02 07:55:19;;;;;;;4.90;3.50;;;;;;;13.38;86.84;99864.33;85866;1296;80909;-62
2022/10/02 07:57:47;;;;;;;5.70;3.60;;;;;;;13.38;86.69;99865.41;85888;1295;81511;-62
2022/10/02 08:00:02;;;;;;;7.10;3.20;;;;;;;13.39;86.48;99866.15;85860;1286;97898;-60
2022/10/02 08:02:26;;;;;;;6.10;3.00;;;;;;;13.43;86.41;99865.84;85846;1296;86993;-60
2022/10/02 08:04:42;;;;;;;3.60;2.60;;;;;;;13.45;86.54;99869.52;85878;1298;94277;-60
2022/10/02 08:06:58;;;;;;;7.40;3.40;;;;;;;13.46;86.36;99865.94;85835;1300;81902;-61
2022/10/02 08:09:15;;;;;;;3.80;2.40;;;;;;;13.46;86.40;99865.23;85819;1294;81960;-62
2022/10/02 08:11:30;;;;;;;4.90;2.60;;;;;;;13.48;86.14;99867.20;85851;1293;99713;-59
2022/10/02 08:13:46;;;;;;;4.50;2.40;;;;;;;13.45;85.98;99872.29;85844;1300;86564;-61
2022/10/02 08:15:59;;;;;;;6.30;2.80;;;;;;;13.40;85.99;99877.50;85819;1300;94617;-61
2022/10/02 08:18:17;;;;;;;6.30;3.00;;;;;;;13.44;85.92;99875.84;85824;1301;80018;-60
2022/10/02 08:20:31;;;;;;;4.40;2.10;;;;;;;13.40;85.99;99872.83;85832;1301;82488;-60
2022/10/02 08:22:46;;;;;;;5.80;2.50;;;;;;;13.43;86.03;99874.05;85800;1294;99129;-57
2022/10/02 08:25:01;;;;;;;4.80;2.30;;;;;;;13.41;86.10;99875.09;85821;1297;87725;-60
2022/10/02 08:27:14;;;;;;;4.00;2.10;;;;;;;13.45;86.09;99878.76;85848;1300;95277;-61
2022/10/02 08:29:31;;;;;;;4.50;1.90;;;;;;;13.54;85.81;99880.70;85841;1297;81848;-61
2022/10/02 08:31:40;;;;;;;3.60;2.10;;;;;;;13.49;85.84;99879.93;85844;1299;82945;-61
2022/10/02 08:38:09;;;;;;;5.70;2.20;;;;;;;13.60;85.75;99881.92;86292;1286;82582;-60
2022/10/02 08:40:56;;;;;;;3.80;1.60;;;;;;;13.74;85.77;99880.30;86177;1289;95543;-60
2022/10/02 08:44:09;;;;;;;5.80;1.70;;;;;;;13.98;85.79;99880.59;86166;1295;81416;-60
2022/10/02 08:46:49;;;;;;;7.50;2.30;;;;;;;14.14;85.46;99883.17;85626;1295;418702;-60
2022/10/02 08:49:36;;;;;;;5.70;1.80;;;;;;;14.26;85.46;99880.88;86157;1297;99638;-59
2022/10/02 08:52:37;;;;;;;4.40;2.00;;;;;;;14.49;85.30;99888.44;86161;1290;88993;-61
2022/10/02 08:55:22;;;;;;;4.30;2.20;;;;;;;14.89;85.20;99884.31;86141;1297;94254;-62
2022/10/02 08:58:21;;;;;;;6.30;2.20;;;;;;;15.13;84.89;99886.84;86139;1291;78911;-61
2022/10/02 09:00:39;;;;;;;7.50;2.00;;;;;;;15.25;84.35;99887.69;86021;1291;84604;-60
2022/10/02 09:03:44;;;;;;;5.10;1.90;;;;;;;15.32;84.20;99882.77;86145;1297;98965;-60
2022/10/02 09:06:36;;;;;;;6.30;2.20;;;;;;;15.31;83.21;99878.02;86062;1299;88153;-60
2022/10/02 09:09:20;;;;;;;7.50;2.40;;;;;;;15.44;83.04;99877.95;86153;1298;94884;-54
2022/10/02 09:12:34;;;;;;;6.90;2.40;;;;;;;15.51;82.69;99876.79;86159;1289;81328;-58
2022/10/02 09:15:08;;;;;;;6.60;2.30;;;;;;;15.57;82.00;99872.16;86143;1291;81475;-62
2022/10/02 09:17:45;;;;;;;5.80;1.70;;;;;;;15.48;81.79;99871.05;86134;1299;98826;-59
2022/10/02 09:20:22;;;;;;;6.70;2.10;;;;;;;15.35;81.54;99871.30;86155;1295;87837;-60
2022/10/02 09:23:43;;;;;;;5.00;2.00;;;;;;;15.27;81.28;99869.24;86170;1294;94551;-61
2022/10/02 09:26:03;;;;;;;6.90;2.40;;;;;;;15.29;80.80;99871.36;86165;1289;80367;-57
2022/10/02 09:29:03;;;;;;;9.50;2.90;;;;;;;15.34;80.58;99868.45;86177;1291;83442;-59
2022/10/02 09:32:02;;;;;;;7.40;2.70;;;;;;;15.35;80.78;99869.34;86180;1291;99968;-61
2022/10/02 09:35:10;;;;;;;7.20;2.70;;;;;;;15.54;80.85;99872.96;85932;1294;87435;-62
2022/10/02 09:37:46;;;;;;;5.00;1.70;;;;;;;15.82;80.80;99872.18;86084;1291;94809;-61
2022/10/02 09:40:40;;;;;;;6.30;2.30;;;;;;;16.30;80.72;99872.02;86034;1291;82638;-60
2022/10/02 09:43:42;;;;;;;3.90;1.70;;;;;;;17.11;80.68;99872.06;86016;1291;83337;-58
2022/10/02 09:46:34;;;;;;;5.00;2.20;;;;;;;17.13;79.57;99873.33;86015;1292;99431;-62
2022/10/02 09:49:34;;;;;;;7.60;2.70;;;;;;;17.29;79.14;99868.25;86063;1292;88360;-60
2022/10/02 09:52:29;;;;;;;7.70;1.80;;;;;;;17.47;78.35;99863.08;86011;1292;93745;-60
2022/10/02 09:55:41;;;;;;;5.80;1.80;;;;;;;17.63;78.16;99860.80;86064;1298;80336;-61
2022/10/02 09:58:31;;;;;;;6.30;1.80;;;;;;;17.95;77.76;99855.41;86042;1292;83504;-62
2022/10/02 10:01:21;;;;;;;6.60;2.20;;;;;;;17.94;76.48;99850.80;86028;1295;98527;-61
2022/10/02 10:04:01;;;;;;;5.50;1.90;;;;;;;17.78;75.87;99850.76;86082;1292;88282;-61
2022/10/02 10:07:18;;;;;;;5.10;1.70;;;;;;;17.57;75.58;99850.93;86063;1298;94115;-61
2022/10/02 10:10:18;;;;;;;7.30;1.70;;;;;;;17.36;75.35;99842.95;86057;1290;78378;-62
2022/10/02 10:13:07;;;;;;;3.30;1.50;;;;;;;17.47;75.46;99842.91;86049;1291;83498;-61
2022/10/02 10:16:40;;;;;;;6.10;1.80;;;;;;;17.82;75.29;99838.38;86070;1297;100405;-62
2022/10/02 10:19:44;;;;;;;4.40;1.60;;;;;;;18.09;74.35;99838.89;85354;1308;87001;-59
2022/10/02 10:23:00;;;;;;;5.70;1.60;;;;;;;17.85;72.85;99838.75;85628;1303;94883;-58
2022/10/02 10:25:54;;;;;;;3.60;1.50;;;;;;;17.83;72.10;99834.77;85576;1303;79411;-59
2022/10/02 10:28:46;;;;;;;7.70;1.50;;;;;;;17.82;72.00;99826.84;85711;1288;83724;-58
2022/10/02 10:31:41;;;;;;;6.60;1.40;;;;;;;18.07;71.57;99827.61;85974;1291;99346;-59
2022/10/02 10:34:54;;;;;;;4.30;1.40;;;;;;;18.14;70.74;99830.86;86072;1298;88428;-58
2022/10/02 10:40:12;;;;;;;4.60;1.20;;;;;;;17.89;69.44;99829.95;86130;1294;80315;-61
2022/10/02 10:42:55;;;;;;;3.80;1.80;;;;;;;17.93;69.62;99828.70;86129;1297;83009;-60
2022/10/02 10:45:33;;;;;;;6.60;1.40;;;;;;;18.04;69.60;99831.93;86125;1289;100031;-59
2022/10/02 10:48:14;;;;;;;4.90;1.60;;;;;;;17.99;69.59;99831.14;86154;1290;87264;-60
2022/10/02 10:50:54;;;;;;;3.90;1.60;;;;;;;17.74;69.71;99838.79;86167;1297;93458;-60
2022/10/02 10:53:29;;;;;;;4.80;1.40;;;;;;;17.26;69.31;99842.86;86178;1297;79896;-60
2022/10/02 10:56:02;;;;;;;4.50;1.50;;;;;;;16.65;69.96;99851.41;86214;1297;82347;-60
2022/10/02 10:58:25;;;;;;;6.30;2.00;;;;;;;16.10;71.15;99853.48;86218;1289;98797;-63
2022/10/02 11:00:48;;;;;;;4.70;1.80;;;;;;;15.82;71.84;99853.61;86136;1292;86816;-59
2022/10/02 11:03:31;;;;;;;3.60;2.00;;;;;;;15.47;72.63;99852.67;86136;1291;94645;-61
2022/10/02 11:06:36;;;;;;;5.60;1.70;;;;;;;15.38;73.51;99853.84;86140;1295;82165;-59
2022/10/02 11:09:25;;;;;;;5.90;2.10;;;;;;;15.55;74.19;99854.85;86020;1283;83184;-59
2022/10/02 11:11:51;;;;;;;6.10;2.30;;;;;;;15.74;74.75;99853.85;86113;1291;99286;-62
2022/10/02 11:14:20;;;;;;;4.60;1.80;;;;;;;15.85;74.85;99847.78;86172;1289;89056;-60
2022/10/02 11:17:21;;;;;;;4.30;1.60;;;;;;;15.84;74.99;99847.88;86129;1289;94721;-59
2022/10/02 11:20:02;;;;;;;7.30;2.30;;;;;;;15.78;75.44;99845.73;86157;1295;81106;-60
2022/10/02 11:22:58;;;;;;;4.00;1.50;;;;;;;15.98;75.57;99844.91;86189;1291;81620;-59
2022/10/02 11:25:29;;;;;;;4.70;1.70;;;;;;;16.12;75.52;99841.80;86148;1291;99378;-60
2022/10/02 11:28:05;;;;;;;6.90;1.70;;;;;;;16.15;75.42;99840.41;86144;1289;88596;-61
2022/10/02 11:30:25;;;;;;;5.50;1.60;;;;;;;16.15;75.21;99843.45;86168;1289;94743;-61
2022/10/02 11:33:07;;;;;;;6.10;1.70;;;;;;;16.06;75.20;99847.29;86210;1289;79348;-60
2022/10/02 11:35:32;;;;;;;4.90;1.70;;;;;;;15.94;75.13;99843.90;86135;1292;82348;-56
2022/10/02 11:38:02;;;;;;;4.10;1.60;;;;;;;15.84;75.23;99843.96;86190;1297;97809;-62